createdAt,value
2018-04-16T00:00:16.826Z,99.90
2018-04-16T00:02:44.358Z,99.90
2018-04-16T00:05:11.972Z,99.90
2018-04-16T00:07:39.492Z,99.90
2018-04-16T00:10:06.988Z,99.90
2018-04-16T00:12:35.255Z,99.90
2018-04-16T00:15:03.557Z,99.90
2018-04-16T00:17:31.133Z,99.90
2018-04-16T00:19:58.634Z,99.90
2018-04-16T00:22:26.215Z,99.90
2018-04-16T00:24:54.755Z,99.90
2018-04-16T00:27:22.506Z,99.90
2018-04-16T00:29:50.022Z,99.90
2018-04-16T00:32:23.094Z,99.90
2018-04-16T00:34:56.989Z,99.90
2018-04-16T00:37:30.248Z,99.90
2018-04-16T00:40:03.377Z,99.90
2018-04-16T00:42:37.383Z,99.90
2018-04-16T00:45:10.568Z,99.90
2018-04-16T00:47:43.755Z,99.90
2018-04-16T00:50:16.970Z,99.90
2018-04-16T00:52:51.027Z,99.90
2018-04-16T00:55:24.226Z,99.90
2018-04-16T00:57:57.367Z,99.90
2018-04-16T01:00:31.361Z,99.90
2018-04-16T01:03:05.403Z,99.90
2018-04-16T01:05:38.517Z,99.90
2018-04-16T01:08:11.745Z,99.90
2018-04-16T01:10:45.049Z,99.90
2018-04-16T01:13:18.244Z,99.90
2018-04-16T01:15:52.291Z,99.90
2018-04-16T01:21:30.293Z,99.90
2018-04-16T01:24:04.319Z,99.90
2018-04-16T01:26:37.628Z,99.90
2018-04-16T01:29:10.996Z,99.90
2018-04-16T01:31:45.075Z,99.90
2018-04-16T01:34:18.532Z,99.90
2018-04-16T01:36:51.755Z,99.90
2018-04-16T01:39:25.607Z,99.90
2018-04-16T01:42:00.168Z,99.90
2018-04-16T01:44:33.503Z,99.90
2018-04-16T01:47:06.683Z,99.90
2018-04-16T01:49:39.905Z,99.90
2018-04-16T01:52:13.049Z,99.90
2018-04-16T01:54:46.342Z,99.90
2018-04-16T01:57:19.566Z,99.90
2018-04-16T01:59:53.718Z,99.90
2018-04-16T02:02:26.932Z,99.90
2018-04-16T02:05:00.074Z,99.90
2018-04-16T02:07:33.265Z,99.90
2018-04-16T02:10:07.144Z,99.90
2018-04-16T02:12:40.254Z,99.90
2018-04-16T02:15:14.467Z,99.90
2018-04-16T02:20:54.091Z,99.90
2018-04-16T02:23:27.335Z,99.90
2018-04-16T02:26:00.471Z,99.90
2018-04-16T02:28:33.739Z,99.90
2018-04-16T02:31:06.873Z,99.90
2018-04-16T02:33:40.040Z,99.90
2018-04-16T02:36:13.217Z,99.90
2018-04-16T02:38:46.333Z,99.90
2018-04-16T02:41:19.513Z,99.90
2018-04-16T02:43:52.680Z,99.90
2018-04-16T02:46:25.942Z,99.90
2018-04-16T02:49:00.031Z,99.90
2018-04-16T02:51:33.485Z,99.90
2018-04-16T02:54:06.703Z,99.90
2018-04-16T02:56:40.034Z,99.90
2018-04-16T02:59:13.939Z,99.90
2018-04-16T03:01:47.931Z,99.90
2018-04-16T03:04:21.187Z,99.90
2018-04-16T03:06:54.386Z,99.90
2018-04-16T03:09:27.709Z,99.90
2018-04-16T03:12:00.876Z,99.90
2018-04-16T03:14:34.134Z,99.90
2018-04-16T03:17:07.374Z,99.90
2018-04-16T03:22:43.427Z,99.90
2018-04-16T03:25:17.461Z,99.90
2018-04-16T03:27:50.660Z,99.90
2018-04-16T03:30:23.866Z,99.90
2018-04-16T03:32:57.774Z,99.90
2018-04-16T03:35:31.091Z,99.90
2018-04-16T03:38:04.242Z,99.90
2018-04-16T03:40:37.427Z,99.90
2018-04-16T03:43:10.692Z,99.90
2018-04-16T03:45:43.824Z,99.90
2018-04-16T03:48:17.130Z,99.90
2018-04-16T03:50:50.455Z,99.90
2018-04-16T03:53:17.970Z,99.90
2018-04-16T03:55:50.959Z,99.90
2018-04-16T03:58:19.241Z,99.90
2018-04-16T04:00:46.732Z,99.90
2018-04-16T04:03:14.277Z,99.90
2018-04-16T04:05:46.328Z,99.90
2018-04-16T04:08:14.614Z,99.90
2018-04-16T04:10:42.893Z,99.90
2018-04-16T04:13:10.425Z,99.90
2018-04-16T04:15:37.932Z,99.90
2018-04-16T04:18:05.427Z,99.90
2018-04-16T04:20:32.938Z,99.90
2018-04-16T04:23:12.266Z,99.90
2018-04-16T04:25:51.701Z,99.90
2018-04-16T04:28:31.007Z,99.90
2018-04-16T04:30:59.292Z,99.90
2018-04-16T04:33:27.606Z,99.90
2018-04-16T04:35:55.109Z,99.90
2018-04-16T04:38:22.628Z,99.90
2018-04-16T04:40:50.174Z,99.90
2018-04-16T04:43:17.675Z,99.90
2018-04-16T04:45:45.172Z,99.90
2018-04-16T04:48:13.463Z,99.90
2018-04-16T04:50:40.937Z,99.90
2018-04-16T04:53:08.459Z,99.90
2018-04-16T04:55:36.851Z,99.90
2018-04-16T04:58:04.374Z,99.90
2018-04-16T05:00:31.855Z,99.90
2018-04-16T05:02:59.382Z,99.90
2018-04-16T05:05:26.915Z,99.90
2018-04-16T05:07:54.437Z,99.90
2018-04-16T05:10:21.953Z,99.90
2018-04-16T05:12:49.494Z,99.90
2018-04-16T05:15:17.001Z,99.90
2018-04-16T05:17:44.500Z,99.90
2018-04-16T05:20:12.009Z,99.90
2018-04-16T05:22:40.284Z,99.90
2018-04-16T05:25:08.121Z,99.90
2018-04-16T05:27:35.654Z,99.90
2018-04-16T05:30:03.155Z,99.90
2018-04-16T05:32:30.704Z,99.90
2018-04-16T05:34:58.176Z,99.90
2018-04-16T05:37:25.788Z,99.90
2018-04-16T05:39:53.304Z,99.90
2018-04-16T05:42:21.600Z,99.90
2018-04-16T05:44:49.135Z,99.90
2018-04-16T05:47:17.385Z,99.90
2018-04-16T05:49:44.874Z,99.90
2018-04-16T05:52:13.168Z,99.90
2018-04-16T05:54:40.950Z,99.90
2018-04-16T05:57:08.454Z,99.90
2018-04-16T05:59:35.952Z,99.90
2018-04-16T06:02:03.480Z,99.90
2018-04-16T06:04:31.747Z,99.90
2018-04-16T06:07:00.052Z,99.90
2018-04-16T06:09:27.589Z,99.90
2018-04-16T06:11:55.862Z,99.90
2018-04-16T06:14:23.380Z,99.90
2018-04-16T06:16:50.897Z,99.90
2018-04-16T06:19:18.445Z,99.90
2018-04-16T06:21:46.738Z,99.90
2018-04-16T06:24:14.246Z,99.90
2018-04-16T06:26:41.741Z,99.90
2018-04-16T06:29:09.240Z,99.90
2018-04-16T06:31:36.745Z,99.90
2018-04-16T06:34:04.227Z,99.90
2018-04-16T06:36:31.735Z,99.90
2018-04-16T06:38:59.233Z,99.90
2018-04-16T06:41:27.544Z,99.90
2018-04-16T06:43:55.025Z,99.90
2018-04-16T06:46:22.534Z,99.90
2018-04-16T06:48:50.811Z,99.90
2018-04-16T06:51:18.328Z,99.90
2018-04-16T06:53:45.959Z,99.90
2018-04-16T06:56:13.444Z,99.90
2018-04-16T06:58:40.975Z,99.90
2018-04-16T07:01:08.484Z,99.90
2018-04-16T07:03:35.978Z,99.90
2018-04-16T07:06:03.519Z,99.90
2018-04-16T07:08:31.087Z,99.90
2018-04-16T07:10:58.648Z,99.90
2018-04-16T07:13:26.193Z,99.90
2018-04-16T07:15:54.513Z,99.90
2018-04-16T07:18:21.986Z,99.90
2018-04-16T07:20:49.502Z,99.90
2018-04-16T07:23:17.021Z,99.90
2018-04-16T07:25:45.280Z,99.90
2018-04-16T07:28:12.779Z,99.90
2018-04-16T07:30:40.324Z,99.90
2018-04-16T07:33:08.590Z,99.90
2018-04-16T07:35:36.885Z,99.90
2018-04-16T07:38:04.416Z,99.90
2018-04-16T07:40:31.903Z,99.90
2018-04-16T07:42:59.409Z,99.90
2018-04-16T07:45:26.955Z,99.90
2018-04-16T07:47:54.486Z,99.90
2018-04-16T07:50:21.973Z,99.90
2018-04-16T07:52:49.477Z,99.90
2018-04-16T07:55:17.773Z,99.90
2018-04-16T07:57:45.255Z,99.90
2018-04-16T08:00:14.027Z,99.90
2018-04-16T08:02:41.560Z,99.90
2018-04-16T08:05:09.860Z,99.90
2018-04-16T08:07:37.410Z,99.90
2018-04-16T08:10:04.955Z,99.00
2018-04-16T08:12:32.704Z,98.10
2018-04-16T08:15:00.983Z,97.70
2018-04-16T08:17:28.551Z,97.70
2018-04-16T08:19:56.852Z,95.60
2018-04-16T08:22:25.114Z,95.50
2018-04-16T08:24:52.651Z,95.60
2018-04-16T08:27:20.926Z,93.50
2018-04-16T08:29:48.533Z,93.30
2018-04-16T08:32:16.740Z,88.20
2018-04-16T08:34:44.255Z,88.10
2018-04-16T08:37:11.802Z,88.90
2018-04-16T08:39:39.324Z,91.00
2018-04-16T08:42:06.874Z,92.20
2018-04-16T08:44:34.629Z,94.80
2018-04-16T08:47:02.215Z,93.70
2018-04-16T08:49:29.734Z,95.50
2018-04-16T08:51:57.237Z,96.00
2018-04-16T08:54:25.514Z,98.40
2018-04-16T08:56:53.775Z,98.30
2018-04-16T08:59:21.270Z,98.30
2018-04-16T09:01:48.763Z,98.60
2018-04-16T09:04:16.292Z,99.90
2018-04-16T09:06:43.778Z,99.10
2018-04-16T09:09:11.317Z,99.40
2018-04-16T09:11:39.000Z,99.10
2018-04-16T09:14:06.533Z,97.40
2018-04-16T09:16:34.021Z,96.60
2018-04-16T09:19:01.554Z,95.60
2018-04-16T09:21:29.078Z,93.70
2018-04-16T09:23:57.332Z,92.40
2018-04-16T09:26:24.826Z,92.40
2018-04-16T09:28:52.369Z,90.00
2018-04-16T09:31:20.663Z,89.80
2018-04-16T09:33:48.922Z,89.70
2018-04-16T09:36:17.184Z,90.80
2018-04-16T09:38:44.695Z,90.70
2018-04-16T09:41:12.197Z,90.80
2018-04-16T09:43:40.498Z,91.30
2018-04-16T09:46:08.019Z,91.30
2018-04-16T09:48:35.642Z,90.90
2018-04-16T09:51:03.151Z,90.70
2018-04-16T09:53:31.425Z,90.90
2018-04-16T09:55:59.730Z,87.20
2018-04-16T09:58:28.064Z,86.00
2018-04-16T10:00:55.529Z,86.00
2018-04-16T10:03:23.044Z,84.00
2018-04-16T10:05:50.600Z,81.60
2018-04-16T10:08:18.221Z,82.70
2018-04-16T10:10:46.498Z,77.90
2018-04-16T10:13:14.857Z,81.60
2018-04-16T10:15:42.378Z,81.50
2018-04-16T10:18:09.872Z,79.00
2018-04-16T10:20:37.425Z,78.40
2018-04-16T10:23:04.918Z,77.40
2018-04-16T10:25:33.173Z,76.10
2018-04-16T10:28:00.695Z,76.10
2018-04-16T10:30:28.987Z,77.90
2018-04-16T10:32:56.489Z,78.00
2018-04-16T10:35:24.776Z,75.60
2018-04-16T10:37:53.029Z,76.70
2018-04-16T10:40:21.294Z,75.70
2018-04-16T10:42:48.830Z,75.50
2018-04-16T10:45:16.367Z,75.00
2018-04-16T10:47:43.903Z,78.10
2018-04-16T10:50:11.401Z,76.20
2018-04-16T10:52:38.907Z,78.20
2018-04-16T10:55:07.179Z,76.00
2018-04-16T10:57:35.450Z,76.70
2018-04-16T11:00:03.709Z,72.50
2018-04-16T11:02:31.232Z,72.40
2018-04-16T11:04:58.734Z,70.40
2018-04-16T11:07:26.994Z,68.80
2018-04-16T11:09:54.497Z,68.30
2018-04-16T11:12:22.000Z,67.20
2018-04-16T11:14:49.501Z,64.60
2018-04-16T11:17:17.007Z,64.60
2018-04-16T11:19:44.499Z,68.10
2018-04-16T11:22:12.010Z,65.50
2018-04-16T11:24:39.533Z,68.90
2018-04-16T11:27:07.132Z,73.00
2018-04-16T11:29:34.630Z,76.50
2018-04-16T11:32:02.922Z,74.20
2018-04-16T11:34:30.457Z,74.10
2018-04-16T11:36:57.981Z,71.60
2018-04-16T11:39:25.486Z,71.50
2018-04-16T11:41:53.784Z,68.50
2018-04-16T11:44:21.321Z,68.40
2018-04-16T11:46:49.608Z,65.90
2018-04-16T11:49:17.115Z,65.80
2018-04-16T11:51:44.639Z,71.10
2018-04-16T11:54:12.144Z,76.20
2018-04-16T11:56:39.681Z,75.50
2018-04-16T11:59:07.211Z,81.10
2018-04-16T12:01:34.742Z,79.70
2018-04-16T12:04:02.299Z,80.30
2018-04-16T12:06:29.820Z,78.10
2018-04-16T12:08:57.412Z,79.10
2018-04-16T12:11:24.952Z,77.50
2018-04-16T12:13:52.458Z,74.30
2018-04-16T12:16:20.027Z,74.30
2018-04-16T12:18:47.608Z,73.40
2018-04-16T12:21:15.108Z,74.70
2018-04-16T12:23:42.612Z,74.00
2018-04-16T12:26:10.107Z,71.00
2018-04-16T12:28:37.659Z,68.70
2018-04-16T12:31:05.169Z,69.10
2018-04-16T12:33:32.657Z,66.10
2018-04-16T12:36:00.170Z,67.80
2018-04-16T12:38:27.680Z,69.80
2018-04-16T12:40:55.174Z,68.70
2018-04-16T12:43:22.720Z,67.80
2018-04-16T12:45:50.258Z,67.60
2018-04-16T12:48:17.842Z,68.10
2018-04-16T12:50:46.129Z,68.70
2018-04-16T12:53:14.416Z,67.00
2018-04-16T12:55:41.956Z,66.10
2018-04-16T12:58:10.320Z,68.70
2018-04-16T13:00:37.841Z,67.50
2018-04-16T13:03:05.398Z,64.50
2018-04-16T13:05:32.917Z,68.00
2018-04-16T13:08:00.406Z,68.50
2018-04-16T13:10:27.934Z,68.80
2018-04-16T13:12:56.253Z,69.90
2018-04-16T13:15:23.781Z,69.90
2018-04-16T13:17:51.312Z,71.90
2018-04-16T13:20:18.846Z,71.00
2018-04-16T13:22:46.385Z,70.90
2018-04-16T13:25:13.936Z,70.10
2018-04-16T13:27:41.493Z,71.90
2018-04-16T13:30:08.994Z,74.20
2018-04-16T13:32:36.529Z,73.40
2018-04-16T13:35:04.067Z,71.20
2018-04-16T13:37:31.576Z,71.60
2018-04-16T13:39:59.097Z,72.20
2018-04-16T13:42:26.615Z,71.40
2018-04-16T13:44:54.912Z,72.00
2018-04-16T13:47:22.422Z,71.70
2018-04-16T13:49:49.909Z,73.90
2018-04-16T13:52:17.447Z,74.80
2018-04-16T13:54:44.976Z,76.20
2018-04-16T13:57:12.513Z,77.90
2018-04-16T13:59:40.039Z,78.40
2018-04-16T14:02:07.507Z,79.10
2018-04-16T14:04:35.813Z,80.10
2018-04-16T14:07:03.270Z,79.80
2018-04-16T14:09:30.722Z,81.60
2018-04-16T14:11:58.211Z,82.30
2018-04-16T14:14:25.615Z,82.20
2018-04-16T14:16:53.854Z,82.10
2018-04-16T14:19:22.063Z,83.20
2018-04-16T14:21:50.301Z,81.10
2018-04-16T14:24:17.768Z,81.00
2018-04-16T14:26:45.283Z,81.00
2018-04-16T14:29:12.730Z,80.20
2018-04-16T14:31:40.246Z,80.80
2018-04-16T14:34:07.737Z,81.40
2018-04-16T14:36:35.208Z,81.20
2018-04-16T14:39:02.690Z,78.40
2018-04-16T14:41:30.260Z,79.30
2018-04-16T14:43:57.749Z,79.20
2018-04-16T14:46:26.006Z,79.50
2018-04-16T14:48:53.470Z,79.50
2018-04-16T14:51:20.933Z,78.50
2018-04-16T14:53:49.169Z,78.80
2018-04-16T14:56:16.603Z,78.70
2018-04-16T14:58:44.060Z,80.80
2018-04-16T15:01:11.581Z,78.80
2018-04-16T15:03:39.790Z,77.00
2018-04-16T15:06:07.250Z,77.00
2018-04-16T15:08:34.735Z,77.30
2018-04-16T15:11:02.211Z,77.10
2018-04-16T15:13:29.649Z,77.20
2018-04-16T15:15:57.129Z,75.90
2018-04-16T15:18:24.686Z,75.50
2018-04-16T15:20:52.965Z,78.90
2018-04-16T15:23:20.423Z,77.60
2018-04-16T15:25:48.716Z,79.40
2018-04-16T15:28:16.999Z,77.40
2018-04-16T15:30:44.452Z,77.30
2018-04-16T15:33:12.683Z,77.70
2018-04-16T15:35:40.139Z,77.70
2018-04-16T15:38:07.593Z,75.80
2018-04-16T15:40:35.080Z,73.10
2018-04-16T15:43:02.524Z,73.40
2018-04-16T15:45:29.960Z,73.80
2018-04-16T15:47:57.434Z,73.60
2018-04-16T15:50:24.895Z,72.70
2018-04-16T15:52:52.372Z,73.40
2018-04-16T15:55:20.611Z,75.30
2018-04-16T15:57:48.066Z,75.20
2018-04-16T16:00:15.542Z,74.60
2018-04-16T16:02:42.981Z,76.70
2018-04-16T16:05:10.442Z,72.40
2018-04-16T16:07:37.915Z,72.20
2018-04-16T16:10:05.388Z,74.30
2018-04-16T16:12:33.634Z,74.80
2018-04-16T16:15:01.149Z,74.80
2018-04-16T16:17:28.549Z,73.80
2018-04-16T16:19:56.003Z,74.70
2018-04-16T16:22:23.471Z,72.80
2018-04-16T16:24:50.914Z,73.30
2018-04-16T16:27:18.383Z,72.80
2018-04-16T16:29:45.876Z,73.60
2018-04-16T16:32:13.328Z,73.80
2018-04-16T16:34:40.777Z,75.40
2018-04-16T16:37:12.756Z,73.40
2018-04-16T16:39:40.195Z,73.40
2018-04-16T16:42:08.417Z,75.50
2018-04-16T16:44:35.954Z,75.40
2018-04-16T16:47:03.400Z,74.80
2018-04-16T16:49:30.853Z,75.60
2018-04-16T16:51:58.327Z,76.40
2018-04-16T16:54:25.813Z,75.80
2018-04-16T16:56:53.274Z,76.20
2018-04-16T16:59:20.725Z,74.40
2018-04-16T17:01:48.204Z,73.60
2018-04-16T17:04:15.685Z,76.30
2018-04-16T17:06:43.915Z,75.00
2018-04-16T17:09:12.342Z,75.00
2018-04-16T17:11:40.547Z,77.20
2018-04-16T17:14:08.001Z,77.20
2018-04-16T17:16:35.448Z,74.30
2018-04-16T17:19:02.907Z,75.60
2018-04-16T17:21:30.357Z,76.70
2018-04-16T17:23:57.925Z,77.80
2018-04-16T17:26:25.403Z,77.70
2018-04-16T17:28:52.850Z,78.50
2018-04-16T17:31:20.317Z,78.10
2018-04-16T17:33:47.787Z,79.40
2018-04-16T17:36:15.254Z,79.80
2018-04-16T17:38:42.705Z,80.10
2018-04-16T17:41:10.169Z,79.10
2018-04-16T17:43:37.635Z,79.00
2018-04-16T17:46:05.080Z,79.20
2018-04-16T17:48:32.523Z,80.70
2018-04-16T17:50:59.996Z,79.80
2018-04-16T17:53:27.469Z,80.50
2018-04-16T17:55:55.683Z,82.40
2018-04-16T17:58:23.166Z,82.40
2018-04-16T18:00:50.635Z,85.30
2018-04-16T18:03:18.101Z,83.70
2018-04-16T18:05:45.562Z,85.20
2018-04-16T18:08:12.996Z,87.00
2018-04-16T18:10:40.472Z,86.50
2018-04-16T18:13:07.940Z,85.70
2018-04-16T18:15:36.183Z,89.10
2018-04-16T18:18:03.623Z,88.20
2018-04-16T18:20:31.100Z,86.40
2018-04-16T18:22:58.572Z,86.70
2018-04-16T18:25:26.021Z,87.20
2018-04-16T18:27:53.488Z,86.90
2018-04-16T18:30:20.941Z,88.40
2018-04-16T18:32:48.420Z,88.30
2018-04-16T18:35:17.369Z,88.30
2018-04-16T18:37:44.826Z,88.30
2018-04-16T18:40:12.283Z,88.70
2018-04-16T18:42:39.727Z,89.70
2018-04-16T18:45:07.171Z,90.40
2018-04-16T18:47:34.637Z,90.20
2018-04-16T18:50:02.085Z,91.20
2018-04-16T18:52:29.559Z,91.20
2018-04-16T18:54:57.019Z,91.60
2018-04-16T18:57:24.494Z,91.50
2018-04-16T18:59:51.952Z,91.30
2018-04-16T19:02:19.434Z,90.90
2018-04-16T19:04:47.654Z,92.00
2018-04-16T19:07:15.122Z,92.00
2018-04-16T19:09:42.576Z,91.50
2018-04-16T19:12:10.023Z,92.00
2018-04-16T19:14:37.531Z,92.50
2018-04-16T19:17:05.804Z,92.10
2018-04-16T19:19:33.338Z,92.10
2018-04-16T19:22:00.800Z,92.30
2018-04-16T19:24:28.285Z,92.50
2018-04-16T19:27:02.330Z,93.10
2018-04-16T19:29:29.823Z,93.10
2018-04-16T19:31:57.295Z,93.10
2018-04-16T19:34:30.455Z,93.50
2018-04-16T19:36:57.908Z,94.00
2018-04-16T19:39:25.408Z,94.00
2018-04-16T19:41:58.576Z,93.90
2018-04-16T19:44:26.038Z,93.70
2018-04-16T19:46:53.497Z,93.50
2018-04-16T19:49:26.657Z,93.40
2018-04-16T19:51:54.125Z,93.80
2018-04-16T19:54:21.578Z,94.00
2018-04-16T19:56:55.242Z,94.50
2018-04-16T19:59:22.716Z,94.50
2018-04-16T20:01:55.818Z,94.70
2018-04-16T20:04:23.556Z,94.70
2018-04-16T20:06:51.400Z,94.60
2018-04-16T20:09:19.077Z,94.90
2018-04-16T20:11:46.642Z,95.50
2018-04-16T20:14:14.116Z,95.30
2018-04-16T20:16:41.740Z,95.60
2018-04-16T20:19:10.145Z,95.50
2018-04-16T20:21:37.628Z,95.50
2018-04-16T20:24:05.162Z,95.60
2018-04-16T20:26:32.826Z,95.60
2018-04-16T20:29:00.526Z,95.80
2018-04-16T20:31:28.008Z,95.80
2018-04-16T20:33:55.530Z,95.80
2018-04-16T20:36:22.992Z,96.40
2018-04-16T20:38:50.478Z,96.20
2018-04-16T20:41:18.035Z,96.20
2018-04-16T20:43:45.594Z,96.40
2018-04-16T20:46:13.151Z,96.40
2018-04-16T20:48:40.598Z,96.40
2018-04-16T20:51:09.602Z,96.70
2018-04-16T20:53:37.067Z,96.70
2018-04-16T20:56:05.276Z,96.90
2018-04-16T20:58:32.753Z,96.80
2018-04-16T21:01:00.224Z,96.90
2018-04-16T21:03:27.681Z,97.00
2018-04-16T21:05:55.127Z,97.20
2018-04-16T21:08:22.594Z,97.50
2018-04-16T21:10:50.181Z,97.70
2018-04-16T21:13:18.412Z,97.90
2018-04-16T21:15:45.880Z,97.90
2018-04-16T21:18:13.325Z,97.90
2018-04-16T21:20:40.855Z,98.00
2018-04-16T21:23:09.050Z,97.90
2018-04-16T21:25:36.504Z,97.80
2018-04-16T21:28:03.941Z,97.70
2018-04-16T21:30:31.458Z,98.20
2018-04-16T21:32:58.998Z,97.60
2018-04-16T21:35:26.444Z,97.60
2018-04-16T21:37:53.937Z,97.90
2018-04-16T21:40:21.411Z,98.30
2018-04-16T21:42:49.642Z,98.30
2018-04-16T21:45:17.108Z,98.30
2018-04-16T21:47:44.547Z,98.50
2018-04-16T21:50:12.037Z,98.50
2018-04-16T21:52:39.485Z,98.60
2018-04-16T21:55:06.926Z,98.60
2018-04-16T21:57:34.401Z,98.50
2018-04-16T22:00:01.855Z,98.80
2018-04-16T22:02:29.328Z,99.00
2018-04-16T22:04:56.812Z,99.10
2018-04-16T22:07:24.286Z,99.70
2018-04-16T22:09:51.756Z,99.30
2018-04-16T22:12:19.220Z,99.00
2018-04-16T22:14:46.714Z,99.20
2018-04-16T22:17:14.175Z,99.20
2018-04-16T22:19:41.640Z,99.20
2018-04-16T22:22:09.881Z,99.30
2018-04-16T22:24:37.350Z,99.20
2018-04-16T22:27:04.808Z,99.20
2018-04-16T22:29:32.266Z,99.00
2018-04-16T22:31:59.731Z,99.10
2018-04-16T22:34:27.966Z,99.90
2018-04-16T22:36:55.403Z,99.50
2018-04-16T22:39:22.860Z,99.20
2018-04-16T22:41:50.321Z,99.40
2018-04-16T22:44:17.772Z,99.40
2018-04-16T22:46:45.234Z,99.30
2018-04-16T22:49:12.702Z,99.40
2018-04-16T22:51:40.154Z,99.40
2018-04-16T22:54:07.611Z,99.40
2018-04-16T22:56:35.051Z,99.50
2018-04-16T22:59:02.511Z,99.70
2018-04-16T23:01:29.979Z,99.80
2018-04-16T23:15:22.095Z,99.90
2018-04-16T23:17:49.575Z,99.80
2018-04-16T23:20:17.035Z,99.70
2018-04-16T23:22:44.487Z,99.90
2018-04-16T23:25:11.937Z,99.90
2018-04-16T23:27:39.407Z,99.90
2018-04-16T23:30:06.847Z,99.90
2018-04-16T23:32:34.316Z,99.90
2018-04-16T23:35:01.769Z,99.90
2018-04-16T23:37:29.223Z,99.90
2018-04-16T23:39:56.696Z,99.90
2018-04-16T23:42:24.158Z,99.90
2018-04-16T23:44:51.642Z,99.90
2018-04-16T23:47:19.077Z,99.90
2018-04-16T23:49:47.327Z,99.90
2018-04-16T23:52:14.768Z,99.90
2018-04-16T23:54:42.221Z,99.90
2018-04-16T23:57:09.696Z,99.90
2018-04-16T23:59:37.184Z,99.90
